Time;durP1;ratioP1;P1;durP2;ratioP2;P2;SDS_P1;SDS_P2;PMS_P1;PMS_P2;Temp;Humidity;BMP_temperature;BMP_pressure;BME280_temperature;BME280_humidity;BME280_pressure;Samples;Min_cycle;Max_cycle;Signal;HPM_P1;HPM_P2
2023/06/05 00:00:57;;;;;;;7.35;2.30;;;12.10;1.00;;;;;;4999964;28;20056;-67
2023/06/05 00:03:24;;;;;;;4.15;1.70;;;12.10;1.00;;;;;;5015489;28;20037;-67
2023/06/05 00:05:50;;;;;;;5.68;1.92;;;12.20;1.00;;;;;;5017147;28;20042;-67
2023/06/05 00:08:16;;;;;;;1.92;1.67;;;12.20;1.00;;;;;;5002485;28;20094;-67
2023/06/05 00:10:42;;;;;;;3.05;1.33;;;12.20;1.00;;;;;;5033582;28;20521;-64
2023/06/05 00:13:08;;;;;;;3.58;2.25;;;12.20;1.00;;;;;;5000843;28;20621;-66
2023/06/05 00:15:35;;;;;;;5.20;1.90;;;12.10;1.00;;;;;;5018132;28;20517;-65
2023/06/05 00:18:03;;;;;;;4.22;2.10;;;12.10;1.00;;;;;;5001049;28;20043;-66
2023/06/05 00:20:29;;;;;;;3.60;1.90;;;12.10;1.00;;;;;;5015757;28;20033;-65
2023/06/05 00:22:55;;;;;;;5.07;1.70;;;12.10;99.90;;;;;;5015761;28;21271;-66
2023/06/05 00:25:21;;;;;;;4.43;1.65;;;12.10;99.90;;;;;;5031932;28;20047;-66
2023/06/05 00:27:48;;;;;;;3.72;1.60;;;12.10;99.90;;;;;;5014907;28;20045;-66
2023/06/05 00:30:14;;;;;;;2.97;1.73;;;12.10;99.90;;;;;;5016661;28;20506;-66
2023/06/05 00:32:40;;;;;;;3.13;1.52;;;12.10;1.00;;;;;;5001022;28;20120;-66
2023/06/05 00:35:07;;;;;;;2.33;1.80;;;12.10;1.00;;;;;;5014925;28;20977;-66
2023/06/05 00:37:37;;;;;;;4.95;1.95;;;12.10;1.00;;;;;;5050169;28;20045;-66
2023/06/05 00:40:04;;;;;;;3.83;1.75;;;12.10;1.00;;;;;;5017540;28;20038;-66
2023/06/05 00:42:30;;;;;;;3.70;1.65;;;12.10;99.90;;;;;;5035755;28;20102;-67
2023/06/05 00:44:55;;;;;;;3.38;1.70;;;12.00;99.90;;;;;;5015633;28;20041;-67
2023/06/05 00:47:22;;;;;;;6.13;1.75;;;12.10;99.90;;;;;;5034135;28;20563;-66
2023/06/05 00:49:48;;;;;;;4.80;1.92;;;12.00;99.90;;;;;;5015835;28;20045;-67
2023/06/05 00:52:15;;;;;;;2.63;1.35;;;12.00;99.90;;;;;;5017980;28;20550;-66
2023/06/05 00:54:41;;;;;;;4.72;1.60;;;12.00;99.90;;;;;;5001397;28;20052;-68
2023/06/05 00:57:07;;;;;;;3.30;1.50;;;12.00;99.90;;;;;;5033472;28;20067;-66
2023/06/05 00:59:34;;;;;;;7.78;2.08;;;12.00;99.90;;;;;;5002669;28;20057;-66
2023/06/05 01:02:02;;;;;;;3.65;1.38;;;12.00;99.90;;;;;;5019639;28;20503;-66
2023/06/05 01:04:28;;;;;;;4.18;1.50;;;12.00;99.90;;;;;;5050263;28;20049;-66
2023/06/05 01:06:57;;;;;;;1.85;1.50;;;11.90;99.90;;;;;;5017152;28;20040;-67
2023/06/05 01:09:26;;;;;;;3.17;1.40;;;11.90;99.90;;;;;;5015986;28;20045;-66
2023/06/05 01:12:16;;;;;;;4.97;1.33;;;11.90;99.90;;;;;;5019375;28;20343;-66
2023/06/05 01:14:47;;;;;;;3.60;1.52;;;11.90;99.90;;;;;;5026675;28;20139;-66
2023/06/05 01:17:13;;;;;;;3.67;1.30;;;11.90;99.90;;;;;;5049100;28;20115;-66
2023/06/05 01:19:40;;;;;;;2.95;1.52;;;11.90;99.90;;;;;;4999610;28;20578;-67
2023/06/05 01:22:05;;;;;;;4.22;2.22;;;11.90;99.90;;;;;;5018136;28;20231;-66
2023/06/05 01:24:32;;;;;;;2.28;1.45;;;11.90;99.90;;;;;;5048965;28;20049;-66
2023/06/05 01:27:07;;;;;;;4.10;1.60;;;11.90;99.90;;;;;;5048477;28;20744;-66
2023/06/05 01:29:58;;;;;;;7.15;1.70;;;11.90;99.90;;;;;;5048216;28;20045;-67
2023/06/05 01:32:41;;;;;;;2.22;1.50;;;11.90;99.90;;;;;;5034427;28;20142;-67
2023/06/05 01:35:09;;;;;;;5.13;2.03;;;11.90;1.00;;;;;;5052396;28;20045;-67
2023/06/05 01:37:46;;;;;;;4.18;1.85;;;11.80;99.90;;;;;;5018961;28;20964;-66
2023/06/05 01:40:14;;;;;;;2.53;1.33;;;11.90;99.90;;;;;;5051728;28;20040;-66
2023/06/05 01:42:42;;;;;;;2.88;1.73;;;11.90;99.90;;;;;;5053455;28;20041;-66
2023/06/05 01:45:09;;;;;;;2.88;1.25;;;11.90;99.90;;;;;;5051898;28;20483;-66
2023/06/05 01:47:39;;;;;;;2.33;1.50;;;11.80;99.90;;;;;;5018976;28;20053;-66
2023/06/05 01:50:07;;;;;;;2.90;1.20;;;11.80;99.90;;;;;;5019036;28;20577;-66
2023/06/05 01:52:39;;;;;;;4.32;1.75;;;11.80;1.00;;;;;;5013033;28;20045;-66
2023/06/05 01:55:06;;;;;;;4.05;1.42;;;11.80;99.90;;;;;;5052684;28;20085;-66
2023/06/05 01:57:33;;;;;;;2.15;1.30;;;11.80;99.90;;;;;;5052761;28;20065;-67
2023/06/05 02:00:01;;;;;;;2.15;1.13;;;11.70;99.90;;;;;;5052350;28;20500;-66
2023/06/05 02:02:28;;;;;;;2.65;1.15;;;11.70;99.90;;;;;;5051502;28;20064;-67
2023/06/05 02:04:54;;;;;;;5.55;1.67;;;11.70;99.90;;;;;;5051437;28;20053;-67
2023/06/05 02:07:21;;;;;;;3.22;1.98;;;11.70;99.90;;;;;;5050872;28;20038;-66
2023/06/05 02:09:47;;;;;;;4.13;1.60;;;11.70;99.90;;;;;;5034872;28;20437;-67
2023/06/05 02:12:14;;;;;;;4.53;1.45;;;11.60;99.90;;;;;;5035783;28;20454;-66
2023/06/05 02:14:44;;;;;;;3.15;1.73;;;11.70;99.90;;;;;;5018490;28;20080;-66
2023/06/05 02:17:13;;;;;;;3.75;1.63;;;11.60;99.90;;;;;;5027865;28;20052;-67
2023/06/05 02:19:39;;;;;;;3.15;1.60;;;11.70;99.90;;;;;;5036386;28;20044;-66
2023/06/05 02:22:05;;;;;;;4.53;1.80;;;11.70;99.90;;;;;;5051457;28;20847;-66
2023/06/05 02:24:30;;;;;;;2.15;1.52;;;11.70;99.90;;;;;;5018114;28;20045;-66
2023/06/05 02:26:56;;;;;;;4.85;1.90;;;11.70;99.90;;;;;;5017733;28;20047;-66
2023/06/05 02:29:23;;;;;;;3.53;1.65;;;11.70;99.90;;;;;;5017503;28;20037;-66
2023/06/05 02:31:48;;;;;;;2.58;1.90;;;11.70;99.90;;;;;;5052455;28;20049;-66
2023/06/05 02:34:16;;;;;;;4.10;1.77;;;11.70;1.00;;;;;;5050208;28;20181;-68
2023/06/05 02:36:45;;;;;;;4.00;1.60;;;11.80;1.00;;;;;;5001244;28;20053;-65
2023/06/05 02:39:14;;;;;;;3.83;1.60;;;11.70;1.00;;;;;;5018593;28;20064;-65
2023/06/05 02:41:42;;;;;;;3.03;1.55;;;11.70;99.90;;;;;;5017690;28;20060;-66
2023/06/05 02:44:08;;;;;;;1.95;1.60;;;11.80;99.90;;;;;;4999467;28;20508;-66
2023/06/05 02:46:34;;;;;;;2.78;1.70;;;11.80;99.90;;;;;;5019971;28;20091;-65
2023/06/05 02:48:59;;;;;;;3.35;1.92;;;11.80;99.90;;;;;;5053692;28;20053;-65
2023/06/05 02:51:25;;;;;;;2.63;1.58;;;11.80;99.90;;;;;;5050341;28;20080;-65
2023/06/05 02:53:50;;;;;;;5.53;1.50;;;11.80;99.90;;;;;;5010809;28;20679;-66
2023/06/05 02:56:16;;;;;;;4.50;1.58;;;11.80;99.90;;;;;;5053095;28;20043;-66
2023/06/05 02:58:45;;;;;;;1.83;1.30;;;11.80;99.90;;;;;;5016243;28;20053;-67
2023/06/05 03:01:12;;;;;;;3.67;1.20;;;11.80;99.90;;;;;;5050166;28;20064;-66
2023/06/05 03:03:37;;;;;;;2.67;1.25;;;11.80;99.90;;;;;;5011937;28;20076;-66
2023/06/05 03:06:06;;;;;;;4.85;1.60;;;11.80;99.90;;;;;;5017921;28;20445;-67
2023/06/05 03:08:36;;;;;;;2.78;1.58;;;11.80;99.90;;;;;;5049847;28;20394;-66
2023/06/05 03:11:03;;;;;;;2.03;1.77;;;11.80;99.90;;;;;;5016153;28;20435;-67
2023/06/05 03:13:30;;;;;;;4.13;1.70;;;11.80;99.90;;;;;;5016302;28;20124;-66
2023/06/05 03:16:00;;;;;;;3.10;1.63;;;11.80;99.90;;;;;;5016808;28;20229;-66
2023/06/05 03:18:27;;;;;;;2.55;1.38;;;11.80;99.90;;;;;;5002693;28;20590;-67
2023/06/05 03:20:54;;;;;;;3.15;2.00;;;11.80;99.90;;;;;;5050500;28;20491;-67
2023/06/05 03:23:28;;;;;;;3.90;1.55;;;11.80;99.90;;;;;;5017182;28;20137;-66
2023/06/05 03:25:54;;;;;;;2.47;1.60;;;11.80;99.90;;;;;;5019701;28;20050;-67
2023/06/05 03:28:22;;;;;;;2.72;1.45;;;11.80;99.90;;;;;;5019733;28;20048;-67
2023/06/05 03:30:48;;;;;;;5.65;1.75;;;11.80;99.90;;;;;;5048113;28;20298;-66
2023/06/05 03:33:15;;;;;;;3.08;2.08;;;11.80;99.90;;;;;;5033174;28;20112;-67
2023/06/05 03:35:47;;;;;;;3.90;1.85;;;11.80;99.90;;;;;;5049552;28;20299;-67
2023/06/05 03:38:13;;;;;;;3.50;1.77;;;11.80;99.90;;;;;;5049413;28;20121;-66
2023/06/05 03:40:39;;;;;;;2.13;1.50;;;11.80;99.90;;;;;;5016538;28;20576;-67
2023/06/05 03:43:06;;;;;;;3.90;1.40;;;11.80;99.90;;;;;;5017043;28;20052;-67
2023/06/05 03:45:33;;;;;;;3.17;1.50;;;11.80;99.90;;;;;;5029209;28;20282;-66
2023/06/05 03:47:59;;;;;;;2.33;1.33;;;11.90;99.90;;;;;;5018031;28;20191;-66
2023/06/05 03:50:29;;;;;;;2.17;1.30;;;11.80;99.90;;;;;;5049298;28;20503;-66
2023/06/05 03:53:02;;;;;;;2.15;1.50;;;11.90;99.90;;;;;;5015472;28;20045;-66
2023/06/05 03:55:40;;;;;;;2.83;1.25;;;11.90;99.90;;;;;;5018748;28;20099;-67
2023/06/05 03:58:13;;;;;;;3.10;1.17;;;11.90;99.90;;;;;;5035431;28;20052;-67
2023/06/05 04:00:43;;;;;;;4.00;1.70;;;11.90;99.90;;;;;;5033434;28;20132;-67
2023/06/05 04:03:10;;;;;;;1.80;1.20;;;11.90;99.90;;;;;;4985472;28;20033;-67
2023/06/05 04:05:38;;;;;;;1.80;1.27;;;11.90;99.90;;;;;;5051827;28;20075;-66
2023/06/05 04:08:04;;;;;;;3.38;1.48;;;12.00;99.90;;;;;;5051309;28;20056;-67
2023/06/05 04:10:30;;;;;;;1.98;1.20;;;12.00;99.90;;;;;;5019907;28;20625;-66
2023/06/05 04:12:56;;;;;;;3.47;1.20;;;12.00;99.90;;;;;;5016942;28;20037;-67
2023/06/05 04:15:23;;;;;;;3.03;1.30;;;12.10;99.90;;;;;;5051431;28;20051;-66
2023/06/05 04:17:49;;;;;;;2.00;1.23;;;12.10;99.90;;;;;;5050912;28;20522;-66
2023/06/05 04:20:15;;;;;;;2.13;1.38;;;12.10;99.90;;;;;;5031028;28;20103;-67
2023/06/05 04:22:42;;;;;;;4.25;1.13;;;12.20;99.90;;;;;;4996183;28;20052;-67
2023/06/05 04:25:10;;;;;;;2.33;1.13;;;12.20;99.90;;;;;;5011400;28;20033;-67
2023/06/05 04:27:40;;;;;;;1.35;1.15;;;12.20;99.90;;;;;;5012972;28;20037;-66
2023/06/05 04:30:07;;;;;;;2.78;1.30;;;12.30;99.90;;;;;;5044826;28;20038;-67
2023/06/05 04:32:36;;;;;;;2.53;1.35;;;12.30;99.90;;;;;;5011654;28;20606;-67
2023/06/05 04:35:03;;;;;;;2.13;1.10;;;12.30;99.90;;;;;;5009506;28;20845;-67
2023/06/05 04:37:29;;;;;;;1.85;0.98;;;12.30;99.90;;;;;;5010734;28;20093;-66
2023/06/05 04:39:54;;;;;;;3.22;1.17;;;12.30;99.90;;;;;;5042762;28;20776;-67
2023/06/05 04:42:21;;;;;;;2.40;1.05;;;12.40;99.90;;;;;;4994824;28;20048;-66
2023/06/05 04:45:01;;;;;;;2.35;0.98;;;12.40;99.90;;;;;;4994980;28;20581;-67
2023/06/05 04:47:27;;;;;;;1.42;0.80;;;12.40;99.90;;;;;;5004787;28;20903;-66
2023/06/05 04:49:54;;;;;;;1.98;1.10;;;12.50;99.90;;;;;;5012461;28;20183;-67
2023/06/05 04:52:23;;;;;;;2.90;1.15;;;12.50;99.90;;;;;;4996192;28;20230;-67
2023/06/05 04:54:49;;;;;;;1.75;0.77;;;12.60;99.90;;;;;;5026062;28;20129;-67
2023/06/05 04:57:16;;;;;;;2.20;0.90;;;12.50;99.90;;;;;;4996216;28;20052;-66
2023/06/05 04:59:42;;;;;;;3.55;0.80;;;12.50;99.90;;;;;;5011216;28;20058;-66
2023/06/05 05:02:08;;;;;;;2.67;0.95;;;12.50;99.90;;;;;;5011381;28;20073;-66
2023/06/05 05:04:34;;;;;;;2.55;1.10;;;12.50;99.90;;;;;;5044006;28;20069;-66
2023/06/05 05:07:03;;;;;;;2.63;0.95;;;12.50;99.90;;;;;;4997449;28;20523;-66
2023/06/05 05:09:32;;;;;;;1.95;0.75;;;12.60;99.90;;;;;;5015634;28;20049;-67
2023/06/05 05:11:58;;;;;;;2.45;1.10;;;12.60;99.90;;;;;;4998719;28;20148;-66
2023/06/05 05:14:28;;;;;;;3.63;1.00;;;12.60;99.90;;;;;;5047555;28;20045;-66
2023/06/05 05:16:55;;;;;;;1.85;0.93;;;12.80;99.90;;;;;;5000790;28;20041;-66
2023/06/05 05:19:22;;;;;;;2.15;1.00;;;12.90;99.90;;;;;;5031686;28;20045;-66
2023/06/05 05:21:48;;;;;;;1.85;0.70;;;13.00;99.90;;;;;;5016522;28;20037;-66
2023/06/05 05:24:14;;;;;;;3.13;0.73;;;13.00;99.90;;;;;;4997421;28;20047;-66
2023/06/05 05:26:40;;;;;;;2.38;0.73;;;13.10;99.90;;;;;;4999580;28;20053;-67
2023/06/05 05:29:06;;;;;;;2.38;0.70;;;13.20;99.90;;;;;;5048181;28;20052;-66
2023/06/05 05:31:32;;;;;;;2.97;0.90;;;13.30;99.90;;;;;;4997020;28;20426;-66
2023/06/05 05:33:58;;;;;;;1.75;0.68;;;13.40;99.90;;;;;;5013538;28;20138;-66
2023/06/05 05:36:27;;;;;;;1.67;0.88;;;13.50;99.90;;;;;;5014975;28;20375;-66
2023/06/05 05:38:53;;;;;;;2.35;0.90;;;13.60;99.90;;;;;;4998432;28;20654;-66
2023/06/05 05:41:20;;;;;;;2.10;0.77;;;13.70;99.90;;;;;;5012758;28;20553;-66
2023/06/05 05:43:46;;;;;;;1.55;0.60;;;13.80;99.90;;;;;;4998399;28;20038;-66
2023/06/05 05:46:12;;;;;;;1.55;1.00;;;13.80;99.90;;;;;;5013684;28;20391;-66
2023/06/05 05:48:38;;;;;;;1.55;0.50;;;13.90;99.90;;;;;;4996619;28;20071;-66
2023/06/05 05:51:05;;;;;;;3.13;0.90;;;14.00;99.90;;;;;;5031063;28;20041;-66
2023/06/05 05:53:31;;;;;;;2.00;0.82;;;14.10;99.90;;;;;;5031322;28;20204;-67
2023/06/05 05:55:57;;;;;;;3.80;0.90;;;14.20;99.90;;;;;;4992615;28;20041;-66
2023/06/05 05:58:23;;;;;;;1.60;0.85;;;14.30;99.90;;;;;;5046379;28;20495;-66
2023/06/05 06:00:48;;;;;;;2.33;0.90;;;14.30;99.90;;;;;;5015144;28;20501;-66
2023/06/05 06:03:16;;;;;;;3.22;1.00;;;14.30;99.90;;;;;;5013491;28;20681;-66
2023/06/05 06:05:42;;;;;;;4.75;1.10;;;14.50;99.90;;;;;;5013813;28;20060;-66
2023/06/05 06:08:08;;;;;;;1.85;0.70;;;14.50;99.90;;;;;;5008881;28;20414;-66
2023/06/05 06:10:34;;;;;;;3.03;1.00;;;14.70;99.90;;;;;;5044878;28;20045;-66
2023/06/05 06:13:00;;;;;;;2.13;0.52;;;14.70;99.90;;;;;;5029418;28;20064;-66
2023/06/05 06:15:27;;;;;;;2.05;0.40;;;14.70;99.90;;;;;;5029704;28;20510;-66
2023/06/05 06:17:53;;;;;;;1.73;0.40;;;14.60;99.90;;;;;;5011921;28;20041;-66
2023/06/05 06:20:19;;;;;;;0.88;0.40;;;14.60;99.90;;;;;;5015222;28;20467;-66
2023/06/05 06:22:45;;;;;;;0.98;0.50;;;14.60;99.90;;;;;;5013123;28;20045;-66
2023/06/05 06:25:12;;;;;;;2.95;0.52;;;14.60;99.90;;;;;;5012158;28;20087;-66
2023/06/05 06:27:38;;;;;;;2.05;0.43;;;14.70;99.90;;;;;;5029872;28;20124;-66
2023/06/05 06:30:04;;;;;;;1.70;0.50;;;14.80;99.90;;;;;;4997959;28;20170;-66
2023/06/05 06:32:30;;;;;;;2.05;0.50;;;14.90;99.90;;;;;;5013970;28;20055;-66
2023/06/05 06:34:57;;;;;;;2.03;0.40;;;15.10;99.90;;;;;;4979861;28;20033;-66
2023/06/05 06:37:23;;;;;;;1.80;0.40;;;15.10;99.90;;;;;;5023429;28;20128;-66
2023/06/05 06:39:49;;;;;;;1.75;0.60;;;15.30;99.90;;;;;;5014141;28;20033;-66
2023/06/05 06:42:15;;;;;;;1.17;0.40;;;15.20;99.90;;;;;;5011917;28;20729;-66
2023/06/05 06:44:41;;;;;;;1.27;0.70;;;15.10;99.90;;;;;;5011795;28;20114;-66
2023/06/05 06:47:08;;;;;;;1.52;0.55;;;15.00;99.90;;;;;;4997276;28;21111;-65
2023/06/05 06:49:37;;;;;;;1.92;0.40;;;15.00;99.90;;;;;;5031170;28;20569;-66
2023/06/05 06:52:03;;;;;;;1.13;0.50;;;14.90;99.90;;;;;;5028881;28;20037;-66
2023/06/05 06:54:29;;;;;;;1.90;0.50;;;14.80;99.90;;;;;;5046626;28;20041;-65
2023/06/05 06:56:56;;;;;;;1.20;0.40;;;14.70;99.90;;;;;;5014342;28;20407;-65
2023/06/05 06:59:22;;;;;;;1.98;0.50;;;14.80;99.90;;;;;;4995990;28;20049;-66
2023/06/05 07:02:09;;;;;;;1.13;0.40;;;15.10;99.90;;;;;;5028561;28;20561;-65
2023/06/05 07:04:35;;;;;;;0.95;0.40;;;15.60;99.90;;;;;;5014347;28;20150;-65
2023/06/05 07:07:01;;;;;;;0.88;0.30;;;15.80;99.90;;;;;;5028056;28;20427;-66
2023/06/05 07:09:27;;;;;;;1.45;0.50;;;15.90;76.30;;;;;;5010840;28;20917;-65
2023/06/05 07:11:54;;;;;;;0.98;0.40;;;16.10;92.30;;;;;;4998698;28;22159;-66
2023/06/05 07:14:20;;;;;;;2.10;0.50;;;16.10;65.30;;;;;;5012607;28;20402;-66
2023/06/05 07:16:45;;;;;;;0.50;0.30;;;16.10;79.80;;;;;;5013046;28;20041;-66
2023/06/05 07:19:13;;;;;;;1.30;0.35;;;16.40;31.20;;;;;;4998591;28;20406;-64
2023/06/05 07:21:38;;;;;;;1.27;0.40;;;16.30;4.50;;;;;;4996351;28;20048;-66
2023/06/05 07:24:06;;;;;;;0.90;0.40;;;16.40;44.50;;;;;;5011111;28;20049;-65
2023/06/05 07:26:32;;;;;;;2.15;0.55;;;16.40;32.20;;;;;;5045733;28;20263;-65
2023/06/05 07:28:57;;;;;;;0.98;0.40;;;16.50;21.20;;;;;;5012638;28;20692;-65
2023/06/05 07:31:23;;;;;;;1.35;0.40;;;16.60;1.00;;;;;;5011919;28;20182;-66
2023/06/05 07:33:49;;;;;;;2.63;0.57;;;16.60;1.00;;;;;;5005467;28;20060;-66
2023/06/05 07:36:15;;;;;;;1.83;0.40;;;16.80;1.00;;;;;;5045219;28;20029;-65
2023/06/05 07:38:41;;;;;;;1.40;0.50;;;16.90;1.00;;;;;;4989809;28;20041;-66
2023/06/05 07:41:10;;;;;;;0.90;0.40;;;17.00;1.00;;;;;;4995763;28;20107;-66
2023/06/05 07:43:40;;;;;;;1.00;0.30;;;17.00;1.00;;;;;;5045550;28;20041;-66
2023/06/05 07:46:06;;;;;;;1.92;0.50;;;17.20;1.00;;;;;;5014590;28;20139;-66
2023/06/05 07:48:32;;;;;;;1.10;0.40;;;17.40;1.00;;;;;;5012690;28;20419;-65
2023/06/05 07:50:58;;;;;;;1.42;0.30;;;17.40;1.00;;;;;;5012331;28;20099;-66
2023/06/05 07:53:23;;;;;;;1.98;0.40;;;17.40;1.00;;;;;;4995333;28;20450;-65
2023/06/05 07:55:51;;;;;;;1.95;0.40;;;17.40;1.00;;;;;;4979470;28;20033;-65
2023/06/05 07:58:18;;;;;;;2.03;0.45;;;17.50;1.00;;;;;;5014054;28;20555;-65
2023/06/05 08:00:47;;;;;;;1.35;0.55;;;17.80;1.00;;;;;;5006126;28;20644;-65
2023/06/05 08:03:19;;;;;;;2.17;0.40;;;17.60;99.90;;;;;;5010526;28;20048;-65
2023/06/05 08:05:51;;;;;;;1.90;0.40;;;17.80;99.90;;;;;;5006876;28;20479;-65
2023/06/05 08:08:18;;;;;;;3.67;0.82;;;17.70;99.90;;;;;;5013401;28;20052;-65
2023/06/05 08:10:44;;;;;;;1.63;0.50;;;17.90;99.90;;;;;;5011198;28;20521;-66
2023/06/05 08:13:10;;;;;;;1.58;0.50;;;18.00;99.90;;;;;;5011986;28;20041;-66
2023/06/05 08:15:36;;;;;;;0.90;0.40;;;18.20;99.90;;;;;;4996045;28;20041;-66
2023/06/05 08:18:03;;;;;;;1.00;0.40;;;18.30;99.90;;;;;;5028488;28;20265;-67
2023/06/05 08:20:29;;;;;;;0.80;0.30;;;18.30;99.90;;;;;;5011836;28;20172;-67
2023/06/05 08:22:57;;;;;;;0.63;0.30;;;18.40;99.90;;;;;;5027593;28;20852;-66
2023/06/05 08:25:24;;;;;;;2.03;0.60;;;18.40;99.90;;;;;;4988188;28;20226;-66
2023/06/05 08:27:50;;;;;;;2.38;0.50;;;18.50;99.90;;;;;;5028776;28;20518;-66
2023/06/05 08:30:17;;;;;;;1.27;0.40;;;18.60;99.90;;;;;;5010667;28;20248;-66
2023/06/05 08:32:43;;;;;;;2.03;0.63;;;18.80;99.90;;;;;;4996040;28;20068;-66
2023/06/05 08:35:12;;;;;;;2.28;0.40;;;18.80;99.90;;;;;;5010115;28;20182;-67
2023/06/05 08:37:39;;;;;;;2.40;0.40;;;18.90;99.90;;;;;;5011087;28;20045;-66
2023/06/05 08:40:06;;;;;;;1.30;0.50;;;18.90;99.90;;;;;;5012029;28;20049;-67
2023/06/05 08:42:32;;;;;;;1.30;0.50;;;18.90;99.90;;;;;;5000708;28;20390;-67
2023/06/05 08:44:58;;;;;;;1.48;0.40;;;18.90;99.90;;;;;;5015221;28;20107;-66
2023/06/05 08:47:28;;;;;;;1.70;0.40;;;19.10;99.90;;;;;;5030854;28;20049;-66
2023/06/05 08:49:56;;;;;;;2.53;1.17;;;19.40;99.90;;;;;;5048839;28;20333;-67
2023/06/05 08:52:23;;;;;;;2.17;0.40;;;19.30;99.90;;;;;;5049674;28;20620;-67
2023/06/05 08:54:49;;;;;;;1.50;0.40;;;19.30;99.90;;;;;;5000662;28;20423;-66
2023/06/05 08:57:15;;;;;;;1.50;0.80;;;19.20;99.90;;;;;;4998654;28;20271;-67
2023/06/05 08:59:41;;;;;;;1.02;0.35;;;19.40;99.90;;;;;;5031343;28;20053;-66
2023/06/05 09:02:10;;;;;;;1.83;0.40;;;19.60;99.90;;;;;;5017019;28;20510;-67
2023/06/05 09:04:38;;;;;;;1.23;0.30;;;19.80;99.90;;;;;;5016540;28;20633;-67
2023/06/05 09:07:04;;;;;;;1.13;0.40;;;19.80;99.90;;;;;;5013944;28;20551;-66
2023/06/05 09:09:32;;;;;;;1.50;0.40;;;19.90;99.90;;;;;;5015251;28;20084;-67
2023/06/05 09:12:06;;;;;;;0.77;0.40;;;19.80;99.90;;;;;;5000848;28;20219;-66
2023/06/05 09:14:35;;;;;;;2.05;0.30;;;20.00;99.90;;;;;;5005956;28;20330;-66
2023/06/05 09:17:19;;;;;;;2.10;0.43;;;20.10;99.90;;;;;;5010950;28;20078;-66
2023/06/05 09:20:09;;;;;;;1.00;0.38;;;20.20;99.90;;;;;;5058136;28;20098;-66
2023/06/05 09:22:53;;;;;;;0.98;0.38;;;20.30;99.90;;;;;;5008874;28;20057;-66
2023/06/05 09:25:18;;;;;;;0.88;0.30;;;20.20;99.90;;;;;;4991746;28;20236;-66
2023/06/05 09:27:45;;;;;;;0.60;0.30;;;20.60;99.90;;;;;;4973935;28;20046;-66
2023/06/05 09:30:12;;;;;;;1.08;0.47;;;20.70;99.90;;;;;;4989923;28;20053;-66
2023/06/05 09:32:39;;;;;;;1.02;0.22;;;20.80;99.90;;;;;;4989410;28;20504;-66
2023/06/05 09:35:06;;;;;;;1.50;0.30;;;20.90;99.90;;;;;;4992339;28;21781;-66
2023/06/05 09:37:36;;;;;;;0.82;0.38;;;20.80;99.90;;;;;;4991885;28;20431;-67
2023/06/05 09:40:03;;;;;;;1.23;0.43;;;20.80;99.90;;;;;;4993025;28;20045;-68
2023/06/05 09:42:32;;;;;;;2.13;0.30;;;20.80;99.90;;;;;;4994724;28;20041;-66
2023/06/05 09:44:59;;;;;;;1.35;0.30;;;20.60;99.90;;;;;;5001854;28;20098;-67
2023/06/05 09:47:25;;;;;;;0.90;0.30;;;20.70;99.90;;;;;;4999533;28;20365;-66
2023/06/05 09:49:51;;;;;;;1.63;0.50;;;20.60;99.90;;;;;;5000409;28;20330;-67
2023/06/05 09:52:16;;;;;;;3.13;0.60;;;20.70;99.90;;;;;;4994166;28;20041;-70
2023/06/05 09:54:44;;;;;;;1.90;0.43;;;20.90;99.90;;;;;;4998875;28;20041;-67
2023/06/05 09:57:11;;;;;;;2.40;0.40;;;21.00;99.90;;;;;;5000636;28;20063;-67
2023/06/05 09:59:41;;;;;;;1.23;0.30;;;20.90;99.90;;;;;;4995340;28;20045;-68
2023/06/05 10:02:08;;;;;;;1.80;0.40;;;21.20;99.90;;;;;;5001060;28;20127;-67
2023/06/05 10:04:47;;;;;;;0.77;0.40;;;21.30;99.90;;;;;;5014621;28;20329;-67
2023/06/05 10:07:15;;;;;;;1.10;0.70;;;21.40;99.90;;;;;;5001621;28;20341;-66
2023/06/05 10:09:43;;;;;;;2.63;0.35;;;21.30;99.90;;;;;;5001157;28;20871;-66
2023/06/05 10:12:10;;;;;;;1.48;0.30;;;21.30;99.90;;;;;;4998616;28;20068;-66
2023/06/05 10:14:36;;;;;;;2.08;0.40;;;21.30;99.90;;;;;;4998119;28;20049;-66
2023/06/05 10:17:02;;;;;;;1.80;0.40;;;21.00;99.90;;;;;;5008640;28;20041;-66
2023/06/05 10:19:28;;;;;;;2.10;0.30;;;21.10;99.90;;;;;;4998930;28;20066;-66
2023/06/05 10:21:54;;;;;;;1.00;0.30;;;21.10;99.90;;;;;;4997938;28;20041;-65
2023/06/05 10:24:28;;;;;;;1.52;0.32;;;21.20;99.90;;;;;;5001038;28;20122;-67
2023/06/05 10:27:09;;;;;;;1.50;0.57;;;21.00;99.90;;;;;;5007643;28;20048;-67
2023/06/05 10:30:23;;;;;;;1.30;0.30;;;20.80;99.90;;;;;;4997723;28;20067;-65
2023/06/05 10:33:10;;;;;;;1.52;0.30;;;20.80;99.90;;;;;;5007351;28;20182;-68
2023/06/05 10:35:55;;;;;;;2.05;0.50;;;21.00;99.90;;;;;;4996262;28;20148;-67
2023/06/05 10:38:24;;;;;;;1.02;0.30;;;20.80;99.90;;;;;;4996386;28;20092;-67
2023/06/05 10:41:01;;;;;;;0.98;0.30;;;21.00;99.90;;;;;;4997039;28;20710;-67
2023/06/05 10:43:32;;;;;;;1.10;0.40;;;21.10;99.90;;;;;;4996728;28;20045;-67
2023/06/05 10:46:00;;;;;;;0.57;0.30;;;21.30;99.90;;;;;;4997511;28;20044;-67
2023/06/05 10:49:03;;;;;;;0.63;0.30;;;21.20;99.90;;;;;;5006663;28;20056;-66
2023/06/05 10:51:40;;;;;;;1.63;0.30;;;21.30;99.90;;;;;;4995712;28;20048;-67
2023/06/05 10:54:15;;;;;;;1.02;0.30;;;21.10;99.90;;;;;;5006489;28;20202;-67
2023/06/05 10:59:22;;;;;;;1.30;0.40;;;21.20;99.90;;;;;;4996469;28;20064;-67
2023/06/05 11:02:17;;;;;;;2.22;0.40;;;21.20;99.90;;;;;;5020360;28;20185;-67
2023/06/05 11:04:42;;;;;;;1.25;0.40;;;21.30;99.90;;;;;;4993184;28;20135;-67
2023/06/05 11:07:22;;;;;;;1.90;0.40;;;21.30;99.90;;;;;;5046546;28;20041;-66
2023/06/05 11:10:04;;;;;;;3.35;0.50;;;21.30;99.90;;;;;;5031229;28;20392;-67
2023/06/05 11:12:40;;;;;;;1.02;0.40;;;21.30;99.90;;;;;;5028333;28;20040;-67
2023/06/05 11:15:30;;;;;;;0.80;0.30;;;21.10;99.90;;;;;;5044476;28;20109;-68
2023/06/05 11:17:56;;;;;;;1.30;0.40;;;21.00;99.90;;;;;;5013759;28;20507;-67
2023/06/05 11:20:28;;;;;;;0.70;0.40;;;20.90;99.90;;;;;;5012726;28;20116;-67
2023/06/05 11:22:54;;;;;;;1.27;0.30;;;21.10;99.90;;;;;;5027256;28;20514;-67
2023/06/05 11:25:30;;;;;;;0.93;0.40;;;21.00;99.90;;;;;;5030437;28;20056;-68
2023/06/05 11:28:05;;;;;;;1.50;0.50;;;20.90;99.90;;;;;;5047903;28;20072;-68
2023/06/05 11:30:40;;;;;;;0.93;0.30;;;21.00;99.90;;;;;;5030388;28;20122;-68
2023/06/05 11:33:12;;;;;;;1.75;0.40;;;21.00;99.90;;;;;;4998504;28;20040;-66
2023/06/05 11:35:38;;;;;;;1.40;0.40;;;20.70;99.90;;;;;;5013750;28;20141;-68
2023/06/05 11:38:18;;;;;;;1.60;0.50;;;20.90;99.90;;;;;;5050177;28;20041;-67
2023/06/05 11:40:45;;;;;;;0.95;0.32;;;20.80;99.90;;;;;;5064072;28;20051;-68
2023/06/05 11:43:13;;;;;;;1.77;0.60;;;20.90;99.90;;;;;;5065215;28;20044;-67
2023/06/05 11:45:40;;;;;;;1.42;0.45;;;21.10;99.90;;;;;;5048779;28;20051;-67
2023/06/05 11:48:10;;;;;;;1.95;0.40;;;21.00;99.90;;;;;;5047785;28;20153;-67
2023/06/05 11:50:51;;;;;;;2.08;0.50;;;20.90;99.90;;;;;;5064311;28;20044;-68
2023/06/05 11:53:18;;;;;;;1.02;0.50;;;21.10;99.90;;;;;;5014575;28;20045;-67
2023/06/05 11:55:55;;;;;;;1.27;0.40;;;21.30;99.90;;;;;;5012360;28;20520;-67
2023/06/05 11:58:25;;;;;;;1.73;0.40;;;21.30;99.90;;;;;;4999897;28;20392;-67
2023/06/05 12:01:02;;;;;;;1.13;0.40;;;21.00;99.90;;;;;;5047460;28;20132;-67
2023/06/05 12:03:28;;;;;;;1.00;0.30;;;21.20;99.90;;;;;;5047987;28;20051;-68
2023/06/05 12:05:54;;;;;;;1.63;0.40;;;21.20;99.90;;;;;;5021573;28;20045;-67
2023/06/05 12:08:29;;;;;;;1.85;0.50;;;21.30;99.90;;;;;;4995732;28;20359;-68
2023/06/05 12:10:56;;;;;;;1.35;0.50;;;21.60;99.90;;;;;;5058921;28;20730;-67
2023/06/05 12:13:22;;;;;;;2.95;0.50;;;21.70;99.90;;;;;;5064067;28;20055;-67
2023/06/05 12:15:58;;;;;;;1.70;0.40;;;21.60;99.90;;;;;;5031360;28;20446;-67
2023/06/05 12:18:34;;;;;;;1.58;0.40;;;21.30;99.90;;;;;;5047945;28;20476;-67
2023/06/05 12:21:00;;;;;;;0.95;0.40;;;21.40;99.90;;;;;;5031516;28;20041;-67
2023/06/05 12:23:28;;;;;;;1.45;0.50;;;21.50;99.90;;;;;;5022460;28;20048;-67
2023/06/05 12:26:02;;;;;;;0.88;0.40;;;21.50;99.90;;;;;;5045218;28;20094;-68
2023/06/05 12:28:29;;;;;;;1.63;0.40;;;21.70;99.90;;;;;;5031205;28;20391;-67
2023/06/05 12:30:55;;;;;;;2.08;0.50;;;21.60;99.90;;;;;;4996912;28;20081;-66
2023/06/05 12:33:24;;;;;;;1.65;0.43;;;21.50;99.90;;;;;;5032200;28;20172;-67
2023/06/05 12:36:05;;;;;;;2.45;0.70;;;21.40;99.90;;;;;;5047689;28;20056;-68
2023/06/05 12:38:37;;;;;;;2.33;0.50;;;21.50;99.90;;;;;;5014998;28;20044;-67
2023/06/05 12:41:06;;;;;;;1.65;0.50;;;21.70;99.90;;;;;;5064117;28;20041;-67
2023/06/05 12:43:32;;;;;;;2.38;0.40;;;21.80;99.90;;;;;;5048801;28;20415;-67
2023/06/05 12:45:58;;;;;;;1.30;0.50;;;21.70;99.90;;;;;;5001122;28;20041;-68
2023/06/05 12:48:24;;;;;;;1.60;0.40;;;21.90;99.90;;;;;;4995650;28;20737;-67
2023/06/05 12:50:50;;;;;;;1.20;0.40;;;21.90;99.90;;;;;;5012193;28;20614;-68
2023/06/05 12:53:16;;;;;;;2.60;0.60;;;22.00;99.90;;;;;;5029665;28;20093;-68
2023/06/05 12:55:42;;;;;;;1.17;0.57;;;21.80;99.90;;;;;;5028468;28;20145;-69
2023/06/05 12:58:08;;;;;;;2.60;0.63;;;21.70;99.90;;;;;;5027364;28;20068;-68